Time;durP1;ratioP1;P1;durP2;ratioP2;P2;SDS_P1;SDS_P2;PMS_P1;PMS_P2;Temp;Humidity;BMP_temperature;BMP_pressure;BME280_temperature;BME280_humidity;BME280_pressure;Samples;Min_cycle;Max_cycle;Signal;HPM_P1;HPM_P2
2023/09/21 00:00:34;;;;;;;9.55;3.22;;;;;;;;;;5108514;28;20036;-60
2023/09/21 00:03:00;;;;;;;9.18;3.22;;;;;;;;;;5101748;28;20059;-60
2023/09/21 00:05:32;;;;;;;7.18;3.20;;;;;;;;;;5090332;28;20055;-60
2023/09/21 00:07:58;;;;;;;6.05;2.97;;;;;;;;;;5107726;28;20036;-60
2023/09/21 00:10:31;;;;;;;5.22;3.00;;;;;;;;;;5087649;28;20043;-60
2023/09/21 00:12:59;;;;;;;4.00;2.85;;;;;;;;;;5106380;28;20085;-60
2023/09/21 00:15:26;;;;;;;4.47;2.95;;;;;;;;;;5104050;28;20153;-60
2023/09/21 00:17:53;;;;;;;5.00;3.08;;;;;;;;;;5106014;28;20051;-60
2023/09/21 00:20:29;;;;;;;6.75;2.90;;;;;;;;;;5106428;28;20391;-59
2023/09/21 00:22:56;;;;;;;7.63;3.10;;;;;;;;;;5085807;28;20877;-61
2023/09/21 00:25:23;;;;;;;5.50;3.05;;;;;;;;;;5105198;28;20040;-60
2023/09/21 00:27:49;;;;;;;5.25;2.88;;;;;;;;;;5104383;28;20035;-59
2023/09/21 00:30:15;;;;;;;9.07;3.05;;;;;;;;;;5083769;28;20039;-61
2023/09/21 00:32:42;;;;;;;3.80;2.70;;;;;;;;;;5104196;28;20047;-61
2023/09/21 00:35:10;;;;;;;7.40;3.17;;;;;;;;;;5104732;28;20048;-61
2023/09/21 00:37:38;;;;;;;5.40;3.08;;;;;;;;;;5101286;28;20039;-61
2023/09/21 00:40:24;;;;;;;4.68;2.70;;;;;;;;;;5088454;28;20035;-61
2023/09/21 00:42:55;;;;;;;6.00;2.90;;;;;;;;;;5100176;27;20044;-61
2023/09/21 00:45:22;;;;;;;8.02;3.35;;;;;;;;;;5102071;28;20403;-61
2023/09/21 00:47:52;;;;;;;6.07;3.00;;;;;;;;;;5086588;28;20046;-61
2023/09/21 00:50:21;;;;;;;7.00;3.13;;;;;;;;;;5091994;28;20394;-61
2023/09/21 00:52:51;;;;;;;5.13;3.10;;;;;;;;;;5106525;28;20036;-61
2023/09/21 00:55:38;;;;;;;5.63;3.13;;;;;;;;;;5102249;28;20525;-61
2023/09/21 00:58:05;;;;;;;7.53;3.30;;;;;;;;;;5107374;28;20035;-61
2023/09/21 01:00:32;;;;;;;4.78;2.83;;;;;;;;;;5084917;28;20051;-61
2023/09/21 01:03:07;;;;;;;5.82;3.50;;;;;;;;;;5104071;28;20518;-61
2023/09/21 01:05:41;;;;;;;5.13;3.30;;;;;;;;;;5067906;28;20044;-61
2023/09/21 01:08:18;;;;;;;5.63;3.20;;;;;;;;;;5106025;28;20032;-61
2023/09/21 01:10:49;;;;;;;5.00;3.10;;;;;;;;;;5102443;28;20044;-61
2023/09/21 01:13:17;;;;;;;6.93;3.50;;;;;;;;;;5104438;28;20502;-61
2023/09/21 01:16:04;;;;;;;5.80;3.28;;;;;;;;;;5104793;28;20030;-61
2023/09/21 01:18:31;;;;;;;5.30;3.00;;;;;;;;;;5084199;28;20507;-61
2023/09/21 01:21:04;;;;;;;5.30;3.38;;;;;;;;;;5085838;28;20039;-61
2023/09/21 01:23:45;;;;;;;5.68;3.50;;;;;;;;;;5103260;28;20052;-61
2023/09/21 01:26:14;;;;;;;6.78;3.65;;;;;;;;;;5100798;28;20050;-61
2023/09/21 01:28:40;;;;;;;5.25;3.55;;;;;;;;;;5103248;28;20451;-61
2023/09/21 01:31:11;;;;;;;8.10;3.70;;;;;;;;;;5105612;28;20062;-61
2023/09/21 01:33:38;;;;;;;11.27;3.78;;;;;;;;;;5071871;28;20513;-61
2023/09/21 01:36:08;;;;;;;5.68;3.45;;;;;;;;;;5103084;28;20047;-60
2023/09/21 01:38:37;;;;;;;6.18;3.20;;;;;;;;;;5089406;28;20041;-61
2023/09/21 01:41:04;;;;;;;8.48;3.70;;;;;;;;;;5104059;28;20047;-61
2023/09/21 01:43:30;;;;;;;8.73;3.50;;;;;;;;;;5103898;28;20035;-61
2023/09/21 01:45:56;;;;;;;7.53;3.70;;;;;;;;;;5103296;28;20039;-61
2023/09/21 01:48:22;;;;;;;7.03;3.45;;;;;;;;;;5103983;28;20795;-60
2023/09/21 01:50:50;;;;;;;8.18;4.05;;;;;;;;;;5088506;28;20032;-61
2023/09/21 01:53:18;;;;;;;7.82;4.18;;;;;;;;;;5102674;28;20066;-61
2023/09/21 01:55:47;;;;;;;9.95;4.88;;;;;;;;;;5091880;28;20044;-61
2023/09/21 01:58:19;;;;;;;5.35;3.85;;;;;;;;;;5086618;28;20032;-61
2023/09/21 02:00:46;;;;;;;10.85;3.97;;;;;;;;;;5086542;28;20028;-61
2023/09/21 02:03:17;;;;;;;6.88;3.90;;;;;;;;;;5102995;28;20412;-61
2023/09/21 02:05:48;;;;;;;9.25;4.53;;;;;;;;;;5083457;28;20032;-60
2023/09/21 02:08:17;;;;;;;9.35;4.03;;;;;;;;;;5102682;28;20079;-61
2023/09/21 02:10:49;;;;;;;8.40;4.40;;;;;;;;;;5103569;28;20035;-61
2023/09/21 02:13:16;;;;;;;8.55;4.35;;;;;;;;;;5098247;28;20040;-61
2023/09/21 02:15:43;;;;;;;8.45;4.55;;;;;;;;;;5098198;28;20055;-61
2023/09/21 02:18:10;;;;;;;7.13;4.28;;;;;;;;;;5101904;28;20031;-61
2023/09/21 02:20:50;;;;;;;7.63;4.53;;;;;;;;;;5105082;28;20026;-61
2023/09/21 02:23:17;;;;;;;11.90;4.60;;;;;;;;;;5102739;28;20027;-60
2023/09/21 02:25:43;;;;;;;7.63;3.70;;;;;;;;;;5105190;28;20036;-59
2023/09/21 02:28:11;;;;;;;10.20;4.07;;;;;;;;;;5107016;28;20031;-60
2023/09/21 02:30:46;;;;;;;10.90;4.85;;;;;;;;;;5105587;28;20040;-60
2023/09/21 02:33:12;;;;;;;9.60;4.82;;;;;;;;;;5082170;28;20042;-60
2023/09/21 02:35:41;;;;;;;7.53;4.10;;;;;;;;;;5086727;28;20043;-59
2023/09/21 02:38:12;;;;;;;;;;;;;;;;;;5099149;28;20043;-59
2023/09/21 02:40:40;;;;;;;12.50;4.50;;;;;;;;;;5083916;28;19919;-59
2023/09/21 02:43:10;;;;;;;6.55;3.88;;;;;;;;;;5082975;28;20048;-59
2023/09/21 02:45:37;;;;;;;5.63;4.07;;;;;;;;;;5083464;28;20032;-59
2023/09/21 02:48:05;;;;;;;9.95;4.43;;;;;;;;;;5081002;28;20039;-59
2023/09/21 02:50:31;;;;;;;9.77;4.90;;;;;;;;;;5086018;28;20046;-60
2023/09/21 02:53:01;;;;;;;9.90;4.50;;;;;;;;;;5086644;28;20402;-60
2023/09/21 02:55:28;;;;;;;7.18;4.22;;;;;;;;;;5106718;28;20046;-59
2023/09/21 02:58:01;;;;;;;8.98;4.65;;;;;;;;;;5088262;28;20051;-59
2023/09/21 03:00:34;;;;;;;7.97;4.40;;;;;;;;;;5093396;28;20039;-60
2023/09/21 03:03:04;;;;;;;15.55;4.63;;;;;;;;;;5094071;28;20490;-59
2023/09/21 03:05:34;;;;;;;9.30;4.63;;;;;;;;;;5088739;28;20051;-61
2023/09/21 03:08:05;;;;;;;8.18;4.10;;;;;;;;;;5092648;28;20031;-60
2023/09/21 03:10:33;;;;;;;8.88;4.22;;;;;;;;;;5090603;28;20032;-60
2023/09/21 03:12:59;;;;;;;7.78;4.63;;;;;;;;;;5090754;28;20050;-59
2023/09/21 03:15:25;;;;;;;11.68;4.82;;;;;;;;;;5089111;28;20047;-60
2023/09/21 03:17:55;;;;;;;9.55;4.75;;;;;;;;;;5084899;28;20054;-60
2023/09/21 03:20:37;;;;;;;10.23;4.78;;;;;;;;;;5087405;28;20122;-60
2023/09/21 03:23:05;;;;;;;9.27;4.72;;;;;;;;;;5089839;28;20041;-61
2023/09/21 03:25:33;;;;;;;11.80;4.50;;;;;;;;;;5091624;28;20035;-60
2023/09/21 03:28:24;;;;;;;8.55;4.22;;;;;;;;;;5085221;28;20055;-60
2023/09/21 03:30:50;;;;;;;8.82;4.75;;;;;;;;;;5101310;28;20052;-60
2023/09/21 03:33:18;;;;;;;9.35;4.68;;;;;;;;;;5105174;28;20043;-60
2023/09/21 03:35:45;;;;;;;10.32;4.88;;;;;;;;;;5086751;28;20051;-60
2023/09/21 03:38:12;;;;;;;8.85;4.93;;;;;;;;;;5085781;28;20044;-61
2023/09/21 03:40:39;;;;;;;9.38;4.78;;;;;;;;;;5104391;28;20045;-61
2023/09/21 03:43:07;;;;;;;8.85;5.35;;;;;;;;;;5072021;28;20048;-60
2023/09/21 03:45:34;;;;;;;11.60;5.15;;;;;;;;;;5085596;28;20043;-60
2023/09/21 03:48:04;;;;;;;8.80;5.03;;;;;;;;;;5086653;28;20036;-61
2023/09/21 03:50:31;;;;;;;10.65;5.55;;;;;;;;;;5093153;28;20039;-60
2023/09/21 03:52:59;;;;;;;12.00;5.60;;;;;;;;;;5073614;28;20047;-60
2023/09/21 03:55:26;;;;;;;14.35;6.13;;;;;;;;;;5090421;28;20517;-60
2023/09/21 03:57:52;;;;;;;13.18;5.72;;;;;;;;;;5105117;28;20510;-60
2023/09/21 04:00:29;;;;;;;11.45;5.95;;;;;;;;;;5088420;28;20039;-60
2023/09/21 04:02:58;;;;;;;11.80;5.35;;;;;;;;;;5087382;28;20047;-60
2023/09/21 04:05:39;;;;;;;12.02;5.22;;;;;;;;;;5084941;28;20054;-59
2023/09/21 04:08:06;;;;;;;14.50;5.70;;;;;;;;;;5071732;28;20030;-60
2023/09/21 04:10:33;;;;;;;12.88;5.43;;;;;;;;;;5087820;28;20027;-60
2023/09/21 04:12:59;;;;;;;11.02;6.05;;;;;;;;;;5084036;28;20553;-61
2023/09/21 04:15:30;;;;;;;12.27;5.57;;;;;;;;;;5086470;28;20139;-62
2023/09/21 04:17:59;;;;;;;10.68;5.45;;;;;;;;;;5090329;28;20054;-61
2023/09/21 04:20:25;;;;;;;15.98;6.38;;;;;;;;;;5089868;28;20043;-60
2023/09/21 04:22:55;;;;;;;16.00;5.53;;;;;;;;;;5106706;28;20380;-60
2023/09/21 04:25:21;;;;;;;11.93;6.00;;;;;;;;;;5105193;28;20630;-59
2023/09/21 04:27:48;;;;;;;10.68;5.57;;;;;;;;;;5087007;28;20019;-60
2023/09/21 04:30:17;;;;;;;13.88;5.72;;;;;;;;;;5086260;28;20050;-60
2023/09/21 04:32:46;;;;;;;15.32;7.03;;;;;;;;;;5079096;28;20044;-61
2023/09/21 04:35:14;;;;;;;11.77;5.55;;;;;;;;;;5088481;28;20038;-61
2023/09/21 04:37:43;;;;;;;10.90;5.07;;;;;;;;;;5081909;28;20043;-60
2023/09/21 04:40:11;;;;;;;13.38;4.50;;;;;;;;;;5085712;28;20054;-58
2023/09/21 04:42:42;;;;;;;10.02;4.72;;;;;;;;;;5088878;28;20097;-59
2023/09/21 04:45:11;;;;;;;7.70;4.90;;;;;;;;;;5085743;28;20032;-59
2023/09/21 04:47:39;;;;;;;10.90;5.57;;;;;;;;;;5086623;28;20062;-60
2023/09/21 04:50:06;;;;;;;11.70;5.70;;;;;;;;;;5086438;28;20040;-60
2023/09/21 04:52:34;;;;;;;15.73;7.15;;;;;;;;;;5085898;28;20387;-60
2023/09/21 04:55:03;;;;;;;11.82;6.13;;;;;;;;;;5086186;28;20032;-59
2023/09/21 04:57:30;;;;;;;10.63;5.57;;;;;;;;;;5087670;28;20032;-60
2023/09/21 04:59:58;;;;;;;11.57;5.43;;;;;;;;;;5087399;28;20392;-60
2023/09/21 05:02:24;;;;;;;13.10;5.22;;;;;;;;;;5085546;28;20040;-59
2023/09/21 05:04:51;;;;;;;10.73;5.18;;;;;;;;;;5081668;28;20032;-59
2023/09/21 05:07:18;;;;;;;16.02;5.68;;;;;;;;;;5081920;28;20055;-59
2023/09/21 05:09:45;;;;;;;9.57;5.22;;;;;;;;;;5083504;28;20031;-59
2023/09/21 05:12:18;;;;;;;9.50;5.07;;;;;;;;;;5093021;28;20050;-60
2023/09/21 05:14:45;;;;;;;9.82;5.38;;;;;;;;;;5084249;28;20048;-59
2023/09/21 05:17:12;;;;;;;9.20;5.03;;;;;;;;;;5106229;28;20096;-59
2023/09/21 05:19:38;;;;;;;10.95;6.13;;;;;;;;;;5107211;28;20430;-59
2023/09/21 05:22:04;;;;;;;12.55;4.85;;;;;;;;;;5106683;27;20057;-59
2023/09/21 05:24:32;;;;;;;7.68;4.45;;;;;;;;;;5103450;28;20040;-59
2023/09/21 05:26:59;;;;;;;7.78;4.00;;;;;;;;;;5101978;28;20054;-59
2023/09/21 05:29:25;;;;;;;8.18;4.07;;;;;;;;;;5107227;28;20031;-59
2023/09/21 05:31:51;;;;;;;13.07;6.70;;;;;;;;;;5100887;28;20043;-59
2023/09/21 05:34:17;;;;;;;11.82;6.57;;;;;;;;;;5100999;28;20043;-59
2023/09/21 05:36:49;;;;;;;17.67;9.13;;;;;;;;;;5102347;28;20036;-59
2023/09/21 05:39:16;;;;;;;7.88;4.00;;;;;;;;;;5099303;28;20051;-59
2023/09/21 05:41:44;;;;;;;6.55;4.32;;;;;;;;;;5105128;28;20043;-59
2023/09/21 05:44:10;;;;;;;10.18;4.70;;;;;;;;;;5068214;28;20047;-58
2023/09/21 05:46:38;;;;;;;6.47;3.80;;;;;;;;;;5086083;28;20031;-59
2023/09/21 05:49:05;;;;;;;6.63;3.92;;;;;;;;;;5106581;28;20031;-59
2023/09/21 05:51:32;;;;;;;6.30;3.70;;;;;;;;;;5105300;28;20039;-58
2023/09/21 05:53:58;;;;;;;5.75;3.17;;;;;;;;;;5104726;28;20055;-60
2023/09/21 05:56:24;;;;;;;8.98;3.30;;;;;;;;;;5099227;28;20530;-59
2023/09/21 05:58:51;;;;;;;5.68;3.10;;;;;;;;;;5087743;28;20039;-59
2023/09/21 06:01:17;;;;;;;8.02;2.78;;;;;;;;;;5102332;28;20035;-60
2023/09/21 06:03:44;;;;;;;4.35;3.28;;;;;;;;;;5100306;28;20102;-59
2023/09/21 06:06:10;;;;;;;6.22;3.05;;;;;;;;;;5102298;28;20383;-59
2023/09/21 06:08:39;;;;;;;5.78;3.15;;;;;;;;;;5087227;28;20052;-62
2023/09/21 06:11:05;;;;;;;3.83;2.40;;;;;;;;;;5103123;28;20027;-63
2023/09/21 06:13:32;;;;;;;3.15;2.60;;;;;;;;;;5105204;28;20031;-59
2023/09/21 06:15:59;;;;;;;3.55;2.72;;;;;;;;;;5105067;28;20419;-59
2023/09/21 06:18:25;;;;;;;4.40;2.80;;;;;;;;;;5102884;28;20071;-61
2023/09/21 06:20:54;;;;;;;4.03;2.70;;;;;;;;;;5103285;28;20051;-59
2023/09/21 06:23:20;;;;;;;3.97;2.90;;;;;;;;;;5102283;28;20397;-59
2023/09/21 06:25:46;;;;;;;4.45;2.70;;;;;;;;;;5104673;28;20042;-59
2023/09/21 06:28:12;;;;;;;7.00;3.83;;;;;;;;;;5105298;28;20027;-59
2023/09/21 06:30:38;;;;;;;6.95;4.18;;;;;;;;;;5106959;28;20390;-59
2023/09/21 06:33:04;;;;;;;5.53;4.10;;;;;;;;;;5107219;28;20047;-59
2023/09/21 06:35:30;;;;;;;4.68;3.00;;;;;;;;;;5102570;28;20419;-59
2023/09/21 06:37:56;;;;;;;4.40;3.03;;;;;;;;;;5104645;28;20051;-59
2023/09/21 06:40:26;;;;;;;4.13;3.03;;;;;;;;;;5111784;28;20027;-59
2023/09/21 06:42:52;;;;;;;5.60;2.70;;;;;;;;;;5105785;28;20066;-59
2023/09/21 06:45:19;;;;;;;5.22;3.45;;;;;;;;;;5108139;28;20356;-58
2023/09/21 06:47:47;;;;;;;8.20;3.15;;;;;;;;;;5109550;28;20031;-58
2023/09/21 06:50:14;;;;;;;5.07;3.15;;;;;;;;;;5108784;28;20050;-58
2023/09/21 06:52:40;;;;;;;4.53;3.10;;;;;;;;;;5108072;28;20044;-59
2023/09/21 06:55:07;;;;;;;3.95;2.80;;;;;;;;;;5105094;28;20043;-58
2023/09/21 06:57:34;;;;;;;5.30;2.95;;;;;;;;;;5108384;28;20590;-59
2023/09/21 07:00:01;;;;;;;3.92;2.65;;;;;;;;;;5108275;28;20051;-58
2023/09/21 07:02:28;;;;;;;5.00;2.92;;;;;;;;;;5104876;28;20027;-58
2023/09/21 07:04:55;;;;;;;5.20;2.70;;;;;;;;;;5102108;28;20043;-58
2023/09/21 07:07:21;;;;;;;4.25;2.97;;;;;;;;;;5103307;28;20047;-58
2023/09/21 07:09:47;;;;;;;9.73;4.63;;;;;;;;;;5104626;28;20047;-58
2023/09/21 07:12:14;;;;;;;6.78;4.20;;;;;;;;;;5102823;28;20035;-58
2023/09/21 07:14:41;;;;;;;6.35;3.00;;;;;;;;;;5108319;28;20544;-58
2023/09/21 07:17:07;;;;;;;6.80;3.45;;;;;;;;;;5105770;28;20044;-58
2023/09/21 07:19:36;;;;;;;4.00;3.10;;;;;;;;;;5102703;28;20044;-58
2023/09/21 07:22:03;;;;;;;5.00;3.50;;;;;;;;;;5105915;28;20502;-58
2023/09/21 07:24:32;;;;;;;4.93;3.17;;;;;;;;;;5105476;28;20032;-58
2023/09/21 07:27:00;;;;;;;4.55;2.78;;;;;;;;;;5104648;28;20364;-58
2023/09/21 07:29:26;;;;;;;5.88;3.00;;;;;;;;;;5108208;28;20028;-58
2023/09/21 07:31:53;;;;;;;4.43;2.97;;;;;;;;;;5106481;28;20023;-58
2023/09/21 07:34:19;;;;;;;5.00;3.10;;;;;;;;;;5102011;28;20039;-58
2023/09/21 07:36:48;;;;;;;5.22;2.65;;;;;;;;;;5103769;28;20031;-58
2023/09/21 07:39:16;;;;;;;5.82;2.78;;;;;;;;;;5104562;28;20031;-58
2023/09/21 07:41:43;;;;;;;3.42;2.90;;;;;;;;;;5104251;28;20391;-58
2023/09/21 07:44:09;;;;;;;4.90;3.20;;;;;;;;;;5101970;28;20573;-59
2023/09/21 07:46:36;;;;;;;5.22;3.25;;;;;;;;;;5106340;28;20054;-59
2023/09/21 07:49:04;;;;;;;3.50;2.88;;;;;;;;;;5088981;28;20043;-59
2023/09/21 07:51:32;;;;;;;5.97;3.60;;;;;;;;;;5104262;28;20040;-59
2023/09/21 07:54:00;;;;;;;7.05;3.20;;;;;;;;;;5104292;28;20052;-59
2023/09/21 07:56:28;;;;;;;6.38;2.70;;;;;;;;;;5086315;28;20044;-58
2023/09/21 07:58:55;;;;;;;5.00;2.92;;;;;;;;;;5085484;28;20050;-59
2023/09/21 08:01:21;;;;;;;6.93;3.03;;;;;;;;;;5102835;28;20034;-58
2023/09/21 08:03:50;;;;;;;3.97;3.00;;;;;;;;;;5101226;28;20027;-58
2023/09/21 08:06:17;;;;;;;5.07;3.30;;;;;;;;;;5088489;28;20502;-58
2023/09/21 08:08:43;;;;;;;5.68;2.78;;;;;;;;;;5089507;28;20046;-58
2023/09/21 08:11:09;;;;;;;4.40;3.15;;;;;;;;;;5105238;28;20046;-59
2023/09/21 08:13:36;;;;;;;3.38;2.55;;;;;;;;;;5105799;28;20518;-58
2023/09/21 08:16:02;;;;;;;3.17;2.58;;;;;;;;;;5104295;28;20043;-58
2023/09/21 08:18:28;;;;;;;5.45;2.88;;;;;;;;;;5105623;28;20052;-58
2023/09/21 08:20:55;;;;;;;5.97;2.60;;;;;;;;;;5067574;28;1136936;-58
2023/09/21 08:23:21;;;;;;;5.07;2.78;;;;;;;;;;5104941;28;20378;-58
2023/09/21 08:25:47;;;;;;;3.72;2.60;;;;;;;;;;5105021;28;20039;-59
2023/09/21 08:28:14;;;;;;;5.07;3.00;;;;;;;;;;5106642;28;20038;-58
2023/09/21 08:30:41;;;;;;;6.70;3.20;;;;;;;;;;5104426;28;20043;-58
2023/09/21 08:33:07;;;;;;;4.18;2.58;;;;;;;;;;5104358;28;20044;-58
2023/09/21 08:35:34;;;;;;;5.05;2.60;;;;;;;;;;5104893;28;20498;-58
2023/09/21 08:38:00;;;;;;;4.82;2.60;;;;;;;;;;5087379;28;20150;-59
2023/09/21 08:40:29;;;;;;;4.72;3.00;;;;;;;;;;5107744;28;20506;-58
2023/09/21 08:42:56;;;;;;;;;;;;;;;;;;5107198;28;20039;-59
2023/09/21 08:45:23;;;;;;;5.88;2.47;;;;;;;;;;5104795;28;19911;-59
2023/09/21 08:47:49;;;;;;;5.65;2.83;;;;;;;;;;5105697;28;20034;-59
2023/09/21 08:50:15;;;;;;;4.03;2.40;;;;;;;;;;5104764;28;20039;-58
2023/09/21 08:52:48;;;;;;;3.83;2.63;;;;;;;;;;5088232;28;20054;-59
2023/09/21 08:55:14;;;;;;;5.00;2.60;;;;;;;;;;5101220;28;20055;-58
2023/09/21 08:57:41;;;;;;;5.40;2.85;;;;;;;;;;5107244;28;20032;-58
2023/09/21 09:00:11;;;;;;;4.30;2.70;;;;;;;;;;5104876;28;20039;-59
2023/09/21 09:02:38;;;;;;;5.50;3.20;;;;;;;;;;5069572;28;20023;-58
2023/09/21 09:05:07;;;;;;;4.18;2.95;;;;;;;;;;5104417;28;20038;-59
2023/09/21 09:07:40;;;;;;;5.82;2.70;;;;;;;;;;5103861;28;20043;-59
2023/09/21 09:10:11;;;;;;;9.32;2.70;;;;;;;;;;5087874;28;20714;-58
2023/09/21 09:12:39;;;;;;;3.20;2.33;;;;;;;;;;5104240;28;20032;-59
2023/09/21 09:15:08;;;;;;;3.92;2.47;;;;;;;;;;5102746;28;20529;-58
2023/09/21 09:17:35;;;;;;;5.10;2.92;;;;;;;;;;5092028;28;20062;-58
2023/09/21 09:20:05;;;;;;;4.82;2.75;;;;;;;;;;5106052;28;20046;-58
2023/09/21 09:22:34;;;;;;;3.45;2.40;;;;;;;;;;5102743;28;20048;-58
2023/09/21 09:25:05;;;;;;;5.22;2.80;;;;;;;;;;5102667;28;20422;-59
2023/09/21 09:27:32;;;;;;;3.70;2.53;;;;;;;;;;5104400;27;20047;-59
2023/09/21 09:29:59;;;;;;;5.82;2.40;;;;;;;;;;5082280;28;20031;-59
2023/09/21 09:32:35;;;;;;;4.75;2.47;;;;;;;;;;5082030;28;20051;-59
2023/09/21 09:35:14;;;;;;;2.75;2.15;;;;;;;;;;5101129;28;20040;-59
2023/09/21 09:37:47;;;;;;;4.35;2.40;;;;;;;;;;5101020;28;20410;-59
2023/09/21 09:40:18;;;;;;;4.28;2.85;;;;;;;;;;5102251;27;20415;-59
2023/09/21 09:42:45;;;;;;;4.53;2.40;;;;;;;;;;5106592;27;20038;-60
2023/09/21 09:45:20;;;;;;;4.68;2.60;;;;;;;;;;5103328;28;20030;-58
2023/09/21 09:47:51;;;;;;;4.22;2.20;;;;;;;;;;5103861;28;20032;-58
2023/09/21 09:50:24;;;;;;;3.92;2.42;;;;;;;;;;5096382;28;20047;-58
2023/09/21 09:53:01;;;;;;;4.43;2.00;;;;;;;;;;5103512;27;20032;-59
2023/09/21 09:55:31;;;;;;;4.53;2.35;;;;;;;;;;5103859;27;20039;-58
2023/09/21 09:57:58;;;;;;;4.35;2.53;;;;;;;;;;5101233;27;20062;-58
2023/09/21 10:00:29;;;;;;;3.83;2.28;;;;;;;;;;5102523;28;20036;-58
2023/09/21 10:02:58;;;;;;;5.80;2.22;;;;;;;;;;5104185;28;20406;-59
2023/09/21 10:05:26;;;;;;;3.53;2.22;;;;;;;;;;5100515;28;21997;-58
2023/09/21 10:07:56;;;;;;;4.45;2.35;;;;;;;;;;5106484;28;20035;-58
2023/09/21 10:10:25;;;;;;;4.70;2.53;;;;;;;;;;5108048;28;20035;-58
2023/09/21 10:12:52;;;;;;;2.78;1.90;;;;;;;;;;5104988;27;20491;-59
2023/09/21 10:15:22;;;;;;;2.95;2.40;;;;;;;;;;5096025;28;20042;-58
2023/09/21 10:17:55;;;;;;;5.80;2.40;;;;;;;;;;5100713;28;20050;-58
2023/09/21 10:20:29;;;;;;;6.30;2.03;;;;;;;;;;5091029;28;20047;-58
2023/09/21 10:22:58;;;;;;;3.60;2.10;;;;;;;;;;5099549;28;20055;-59
2023/09/21 10:25:44;;;;;;;3.78;2.17;;;;;;;;;;5100884;28;20420;-59
2023/09/21 10:28:28;;;;;;;3.05;2.17;;;;;;;;;;5104400;28;20465;-59
2023/09/21 10:30:55;;;;;;;9.23;2.00;;;;;;;;;;5098568;28;20036;-58
2023/09/21 10:33:25;;;;;;;3.50;2.65;;;;;;;;;;5102522;28;20040;-60
2023/09/21 10:35:52;;;;;;;2.88;2.13;;;;;;;;;;5086492;28;20038;-61
2023/09/21 10:38:18;;;;;;;2.00;1.80;;;;;;;;;;5100990;28;20039;-58
2023/09/21 10:40:45;;;;;;;3.58;2.00;;;;;;;;;;5086230;28;20645;-58
2023/09/21 10:43:42;;;;;;;3.83;2.22;;;;;;;;;;5097638;28;20036;-59
2023/09/21 10:46:21;;;;;;;2.85;1.98;;;;;;;;;;5096467;28;20055;-59
2023/09/21 10:48:49;;;;;;;5.72;2.30;;;;;;;;;;5103241;28;20027;-59
2023/09/21 10:51:15;;;;;;;3.10;2.17;;;;;;;;;;5102587;28;20317;-59
2023/09/21 10:53:42;;;;;;;4.95;2.20;;;;;;;;;;5100090;28;20044;-59
2023/09/21 10:56:08;;;;;;;2.33;1.52;;;;;;;;;;5101393;28;20047;-59
2023/09/21 10:58:34;;;;;;;3.50;1.60;;;;;;;;;;5100793;28;20040;-59
2023/09/21 11:01:01;;;;;;;2.20;1.30;;;;;;;;;;5104289;28;20549;-59
2023/09/21 11:03:28;;;;;;;2.55;1.50;;;;;;;;;;5101574;28;20066;-59
2023/09/21 11:05:54;;;;;;;1.77;1.40;;;;;;;;;;5105096;28;20449;-59
2023/09/21 11:08:26;;;;;;;1.63;1.20;;;;;;;;;;5104626;28;20376;-59
2023/09/21 11:10:53;;;;;;;1.50;1.30;;;;;;;;;;5100164;28;20590;-60
2023/09/21 11:13:19;;;;;;;2.00;1.30;;;;;;;;;;5103512;28;20046;-60
2023/09/21 11:15:46;;;;;;;2.28;1.40;;;;;;;;;;5104831;28;20043;-59
2023/09/21 11:18:14;;;;;;;2.22;1.40;;;;;;;;;;5105221;28;20059;-59
2023/09/21 11:20:41;;;;;;;2.40;1.27;;;;;;;;;;5107957;28;20039;-60
2023/09/21 11:23:07;;;;;;;5.80;1.33;;;;;;;;;;5105863;28;20071;-59
2023/09/21 11:25:33;;;;;;;2.25;1.20;;;;;;;;;;5107846;28;20517;-59
2023/09/21 11:28:00;;;;;;;2.33;1.20;;;;;;;;;;5107102;28;20458;-60
2023/09/21 11:30:26;;;;;;;3.70;1.50;;;;;;;;;;5107294;28;20035;-60
2023/09/21 11:32:54;;;;;;;2.47;1.40;;;;;;;;;;5103040;28;20047;-59
2023/09/21 11:35:21;;;;;;;4.82;1.20;;;;;;;;;;5105498;28;20035;-60
2023/09/21 11:37:52;;;;;;;4.53;1.38;;;;;;;;;;5106548;28;20384;-60
2023/09/21 11:40:24;;;;;;;3.20;1.30;;;;;;;;;;5101506;28;20031;-60
2023/09/21 11:42:56;;;;;;;1.50;1.10;;;;;;;;;;5103500;27;20044;-60
2023/09/21 11:45:24;;;;;;;2.30;1.35;;;;;;;;;;5107567;27;20027;-60
2023/09/21 11:47:54;;;;;;;1.88;1.05;;;;;;;;;;5100707;28;20419;-58
2023/09/21 11:50:25;;;;;;;1.88;1.20;;;;;;;;;;5098387;28;20530;-59
2023/09/21 11:53:00;;;;;;;2.55;1.10;;;;;;;;;;5108610;27;20024;-58
2023/09/21 11:55:28;;;;;;;2.10;1.00;;;;;;;;;;5101530;28;20039;-59
2023/09/21 11:58:14;;;;;;;2.80;1.10;;;;;;;;;;5105758;27;20439;-58
2023/09/21 12:00:49;;;;;;;4.15;1.00;;;;;;;;;;5103511;28;20035;-59
2023/09/21 12:03:17;;;;;;;3.78;1.13;;;;;;;;;;5094526;27;20036;-58
2023/09/21 12:05:44;;;;;;;2.30;1.00;;;;;;;;;;5098834;28;20032;-59
2023/09/21 12:08:13;;;;;;;1.92;0.90;;;;;;;;;;5106245;28;20073;-59
2023/09/21 12:10:53;;;;;;;0.85;0.85;;;;;;;;;;5089352;28;20039;-59
2023/09/21 12:13:19;;;;;;;1.20;0.80;;;;;;;;;;5104789;28;20042;-59
2023/09/21 12:15:45;;;;;;;0.90;0.70;;;;;;;;;;5089312;28;20047;-59
2023/09/21 12:18:12;;;;;;;1.10;0.65;;;;;;;;;;5104849;28;20032;-59
2023/09/21 12:20:49;;;;;;;0.70;0.70;;;;;;;;;;5105880;28;20035;-58
2023/09/21 12:23:16;;;;;;;1.60;0.90;;;;;;;;;;5102153;28;20035;-58
2023/09/21 12:25:42;;;;;;;1.85;0.75;;;;;;;;;;5086328;28;20028;-58
2023/09/21 12:28:11;;;;;;;2.00;0.88;;;;;;;;;;5105832;28;20048;-59
2023/09/21 12:30:42;;;;;;;1.20;0.98;;;;;;;;;;5106497;28;20044;-59
2023/09/21 12:33:08;;;;;;;1.25;0.80;;;;;;;;;;5101596;28;20043;-59
2023/09/21 12:35:35;;;;;;;2.47;1.10;;;;;;;;;;5099362;28;20044;-59
2023/09/21 12:38:02;;;;;;;1.88;0.80;;;;;;;;;;5100398;28;20134;-59
2023/09/21 12:40:29;;;;;;;1.33;0.88;;;;;;;;;;5101540;28;20052;-58
2023/09/21 12:42:55;;;;;;;1.08;0.77;;;;;;;;;;5108482;27;20042;-59
2023/09/21 12:45:21;;;;;;;1.65;0.88;;;;;;;;;;5107061;27;20024;-59
2023/09/21 12:47:47;;;;;;;2.30;1.10;;;;;;;;;;5097455;28;20032;-58
2023/09/21 12:50:15;;;;;;;1.63;1.27;;;;;;;;;;5080869;27;20047;-58
2023/09/21 12:52:44;;;;;;;2.53;1.30;;;;;;;;;;5102123;28;20038;-59
2023/09/21 12:55:11;;;;;;;1.25;0.88;;;;;;;;;;5101197;28;20399;-59
2023/09/21 12:57:39;;;;;;;2.78;1.30;;;;;;;;;;5105581;28;20035;-59
2023/09/21 13:00:21;;;;;;;1.47;0.77;;;;;;;;;;5103922;27;20996;-59
2023/09/21 13:02:49;;;;;;;0.98;0.80;;;;;;;;;;5083743;28;20411;-58
2023/09/21 13:05:16;;;;;;;2.90;1.00;;;;;;;;;;5103496;28;20036;-59
2023/09/21 13:07:44;;;;;;;2.80;1.00;;;;;;;;;;5102080;28;20047;-59
2023/09/21 13:10:12;;;;;;;5.43;0.80;;;;;;;;;;5106252;28;20390;-58
2023/09/21 13:12:39;;;;;;;2.35;1.00;;;;;;;;;;5104274;28;20052;-58
2023/09/21 13:15:06;;;;;;;1.70;1.20;;;;;;;;;;5102237;28;20039;-59
2023/09/21 13:17:32;;;;;;;2.30;0.95;;;;;;;;;;5106825;28;20031;-58
2023/09/21 13:19:59;;;;;;;1.45;0.90;;;;;;;;;;5105852;28;20553;-59
2023/09/21 13:22:25;;;;;;;2.70;0.90;;;;;;;;;;5103191;28;20043;-58
2023/09/21 13:24:52;;;;;;;1.08;0.93;;;;;;;;;;5103506;28;20047;-59
2023/09/21 13:27:19;;;;;;;1.92;1.10;;;;;;;;;;5085113;28;20040;-59
2023/09/21 13:29:45;;;;;;;2.50;0.98;;;;;;;;;;5101791;28;20035;-59
2023/09/21 13:32:11;;;;;;;3.55;1.00;;;;;;;;;;5101702;28;20507;-59
2023/09/21 13:34:37;;;;;;;2.53;1.33;;;;;;;;;;5100215;28;20047;-60
2023/09/21 13:37:04;;;;;;;2.47;1.52;;;;;;;;;;5102496;28;20083;-59
2023/09/21 13:39:34;;;;;;;2.80;1.60;;;;;;;;;;5104751;28;20039;-59
2023/09/21 13:42:00;;;;;;;1.80;1.35;;;;;;;;;;5104021;28;20039;-60
2023/09/21 13:44:27;;;;;;;2.58;1.27;;;;;;;;;;5100100;28;20039;-60
2023/09/21 13:46:54;;;;;;;1.40;1.20;;;;;;;;;;5103836;28;20043;-60
2023/09/21 13:49:20;;;;;;;2.40;1.30;;;;;;;;;;5104065;28;21753;-60
2023/09/21 13:51:47;;;;;;;1.15;1.05;;;;;;;;;;5080977;28;20087;-60
2023/09/21 13:54:13;;;;;;;2.05;1.15;;;;;;;;;;5068734;28;20043;-59
2023/09/21 13:56:40;;;;;;;1.20;1.10;;;;;;;;;;5107158;28;20031;-60
2023/09/21 13:59:06;;;;;;;1.20;1.10;;;;;;;;;;5105435;28;20039;-59
2023/09/21 14:01:32;;;;;;;2.72;1.20;;;;;;;;;;5102813;28;20035;-59
2023/09/21 14:03:58;;;;;;;2.10;1.40;;;;;;;;;;5103499;28;20035;-59
2023/09/21 14:06:27;;;;;;;1.67;1.25;;;;;;;;;;5104826;28;20031;-59
2023/09/21 14:08:53;;;;;;;3.10;1.40;;;;;;;;;;5086253;28;20042;-59
2023/09/21 14:11:20;;;;;;;1.85;1.25;;;;;;;;;;5083094;28;20048;-59
2023/09/21 14:13:46;;;;;;;1.65;1.17;;;;;;;;;;5101310;28;20490;-59
2023/09/21 14:16:12;;;;;;;2.63;1.50;;;;;;;;;;5102017;28;20510;-59
2023/09/21 14:18:42;;;;;;;3.75;1.23;;;;;;;;;;5104356;28;20035;-59
2023/09/21 14:21:08;;;;;;;1.10;1.00;;;;;;;;;;5103680;28;20398;-59
2023/09/21 14:23:36;;;;;;;4.75;1.20;;;;;;;;;;5097009;28;20040;-60
2023/09/21 14:26:14;;;;;;;5.28;1.40;;;;;;;;;;5099422;28;20036;-60
2023/09/21 14:28:40;;;;;;;2.83;1.40;;;;;;;;;;5102804;28;20406;-60
2023/09/21 14:31:06;;;;;;;3.08;1.50;;;;;;;;;;5095392;28;20040;-59
2023/09/21 14:33:33;;;;;;;3.05;1.70;;;;;;;;;;5081148;28;20070;-59
2023/09/21 14:35:59;;;;;;;1.42;1.10;;;;;;;;;;5094616;28;20051;-60
2023/09/21 14:38:25;;;;;;;3.58;1.50;;;;;;;;;;5092899;28;20040;-60
2023/09/21 14:40:51;;;;;;;2.55;1.40;;;;;;;;;;5094018;28;20040;-59
2023/09/21 14:43:18;;;;;;;2.60;1.50;;;;;;;;;;5092490;28;20063;-59
2023/09/21 14:45:45;;;;;;;3.72;1.23;;;;;;;;;;5096985;28;20521;-59
2023/09/21 14:48:11;;;;;;;2.63;1.17;;;;;;;;;;5081504;28;20039;-58